OCO weather

San Luis de Ocosingo Airport
Ocosingo, Chiapas, Mexico

Public forecast

Using degrees Celsius for public forecast. Weather courtesy of forecast.io.

METAR (pilot weather report)

Report is more than 6 hours old.

Closest report is Palenque International Airport, 38.6 nm (71.4 km) N. Retrieved 2019/06/17 23:44 UTC (9 hours ago):

MMPQ 172344Z 00000KT 7SM BKN040 32/26 A2968 RMK 8/400

TAF (pilot weather forecast)

Closest forecast is Palenque International Airport, 38.6 nm (71.4 km) N. Retrieved 2019/06/18 06:37 UTC (2 hours ago):

TAF MMPQ 180537Z 1806/1906 00000KT 6SM HZ BKN030 FM181000 00000KT 6SM HZ SCT020 SCT200 TEMPO 1811/1815 3SM HZ BKN015 FM181800 09010KT 6SM HZ SCT030 BKN100 TEMPO 1822/1902 6SM -TSRA BKN020CB